sensor_id;sensor_type;location;lat;lon;timestamp;P1;durP1;ratioP1;P2;durP2;ratioP2
39674;SDS011;27790;50.840;4.386;2023-06-19T00:02:20;5.53;;;3.28;;
39674;SDS011;27790;50.840;4.386;2023-06-19T00:04:46;3.97;;;3.58;;
39674;SDS011;27790;50.840;4.386;2023-06-19T00:07:11;5.57;;;3.47;;
39674;SDS011;27790;50.840;4.386;2023-06-19T00:09:37;5.30;;;3.35;;
39674;SDS011;27790;50.840;4.386;2023-06-19T00:12:03;4.32;;;3.55;;
39674;SDS011;27790;50.840;4.386;2023-06-19T00:14:29;3.70;;;3.00;;
39674;SDS011;27790;50.840;4.386;2023-06-19T00:16:54;9.20;;;4.15;;
39674;SDS011;27790;50.840;4.386;2023-06-19T00:19:21;9.70;;;4.75;;
39674;SDS011;27790;50.840;4.386;2023-06-19T00:21:47;5.18;;;3.33;;
39674;SDS011;27790;50.840;4.386;2023-06-19T00:24:13;6.10;;;3.35;;
39674;SDS011;27790;50.840;4.386;2023-06-19T00:26:38;5.82;;;3.63;;
39674;SDS011;27790;50.840;4.386;2023-06-19T00:29:05;4.53;;;3.55;;
39674;SDS011;27790;50.840;4.386;2023-06-19T00:31:31;4.95;;;3.95;;
39674;SDS011;27790;50.840;4.386;2023-06-19T00:33:57;8.68;;;4.15;;
39674;SDS011;27790;50.840;4.386;2023-06-19T00:36:23;5.90;;;3.47;;
39674;SDS011;27790;50.840;4.386;2023-06-19T00:38:51;3.88;;;2.97;;
39674;SDS011;27790;50.840;4.386;2023-06-19T00:41:17;8.82;;;3.70;;
39674;SDS011;27790;50.840;4.386;2023-06-19T00:43:42;3.80;;;3.15;;
39674;SDS011;27790;50.840;4.386;2023-06-19T00:46:09;3.58;;;3.03;;
39674;SDS011;27790;50.840;4.386;2023-06-19T00:48:35;4.13;;;3.05;;
39674;SDS011;27790;50.840;4.386;2023-06-19T00:51:01;3.40;;;2.80;;
39674;SDS011;27790;50.840;4.386;2023-06-19T00:53:27;4.38;;;3.08;;
39674;SDS011;27790;50.840;4.386;2023-06-19T00:55:53;3.22;;;2.92;;
39674;SDS011;27790;50.840;4.386;2023-06-19T00:58:21;3.13;;;2.78;;
39674;SDS011;27790;50.840;4.386;2023-06-19T01:00:50;5.40;;;2.92;;
39674;SDS011;27790;50.840;4.386;2023-06-19T01:03:16;2.85;;;2.55;;
39674;SDS011;27790;50.840;4.386;2023-06-19T01:05:42;4.45;;;3.35;;
39674;SDS011;27790;50.840;4.386;2023-06-19T01:11:03;4.10;;;3.03;;
39674;SDS011;27790;50.840;4.386;2023-06-19T01:16:03;9.27;;;3.38;;
39674;SDS011;27790;50.840;4.386;2023-06-19T01:18:31;16.52;;;3.45;;
39674;SDS011;27790;50.840;4.386;2023-06-19T01:21:08;5.15;;;2.88;;
39674;SDS011;27790;50.840;4.386;2023-06-19T01:23:37;3.60;;;2.83;;
39674;SDS011;27790;50.840;4.386;2023-06-19T01:26:03;4.30;;;3.05;;
39674;SDS011;27790;50.840;4.386;2023-06-19T01:28:29;5.15;;;3.03;;
39674;SDS011;27790;50.840;4.386;2023-06-19T01:30:54;4.82;;;3.30;;
39674;SDS011;27790;50.840;4.386;2023-06-19T01:33:25;3.42;;;3.13;;
39674;SDS011;27790;50.840;4.386;2023-06-19T01:35:53;4.15;;;2.88;;
39674;SDS011;27790;50.840;4.386;2023-06-19T01:38:20;4.78;;;3.72;;
39674;SDS011;27790;50.840;4.386;2023-06-19T01:40:50;3.60;;;3.30;;
39674;SDS011;27790;50.840;4.386;2023-06-19T01:43:20;7.82;;;3.13;;
39674;SDS011;27790;50.840;4.386;2023-06-19T01:45:48;3.85;;;3.45;;
39674;SDS011;27790;50.840;4.386;2023-06-19T01:48:14;7.05;;;3.47;;
39674;SDS011;27790;50.840;4.386;2023-06-19T01:50:40;3.15;;;2.92;;
39674;SDS011;27790;50.840;4.386;2023-06-19T01:53:06;8.20;;;4.03;;
39674;SDS011;27790;50.840;4.386;2023-06-19T01:55:32;6.32;;;3.47;;
39674;SDS011;27790;50.840;4.386;2023-06-19T01:57:57;5.82;;;3.55;;
39674;SDS011;27790;50.840;4.386;2023-06-19T02:00:23;8.98;;;3.80;;
39674;SDS011;27790;50.840;4.386;2023-06-19T02:02:48;4.10;;;3.67;;
39674;SDS011;27790;50.840;4.386;2023-06-19T02:05:14;6.20;;;4.03;;
39674;SDS011;27790;50.840;4.386;2023-06-19T02:07:40;4.57;;;3.30;;
39674;SDS011;27790;50.840;4.386;2023-06-19T02:10:06;11.13;;;3.80;;
39674;SDS011;27790;50.840;4.386;2023-06-19T02:12:33;4.40;;;3.63;;
39674;SDS011;27790;50.840;4.386;2023-06-19T02:14:58;6.82;;;3.75;;
39674;SDS011;27790;50.840;4.386;2023-06-19T02:17:24;5.93;;;3.22;;
39674;SDS011;27790;50.840;4.386;2023-06-19T02:19:50;5.57;;;3.47;;
39674;SDS011;27790;50.840;4.386;2023-06-19T02:22:17;4.57;;;3.72;;
39674;SDS011;27790;50.840;4.386;2023-06-19T02:24:43;6.63;;;3.92;;
39674;SDS011;27790;50.840;4.386;2023-06-19T02:27:10;10.00;;;3.92;;
39674;SDS011;27790;50.840;4.386;2023-06-19T02:29:35;4.75;;;3.83;;
39674;SDS011;27790;50.840;4.386;2023-06-19T02:32:02;7.03;;;4.07;;
39674;SDS011;27790;50.840;4.386;2023-06-19T02:34:28;5.10;;;4.10;;
39674;SDS011;27790;50.840;4.386;2023-06-19T02:36:54;8.65;;;4.68;;
39674;SDS011;27790;50.840;4.386;2023-06-19T02:39:20;7.30;;;4.07;;
39674;SDS011;27790;50.840;4.386;2023-06-19T02:41:46;4.72;;;3.75;;
39674;SDS011;27790;50.840;4.386;2023-06-19T02:44:12;6.35;;;3.95;;
39674;SDS011;27790;50.840;4.386;2023-06-19T02:46:39;5.20;;;3.78;;
39674;SDS011;27790;50.840;4.386;2023-06-19T02:49:04;8.57;;;3.88;;
39674;SDS011;27790;50.840;4.386;2023-06-19T02:51:30;6.30;;;3.70;;
39674;SDS011;27790;50.840;4.386;2023-06-19T02:53:55;8.70;;;3.92;;
39674;SDS011;27790;50.840;4.386;2023-06-19T02:56:21;7.60;;;4.55;;
39674;SDS011;27790;50.840;4.386;2023-06-19T02:58:47;7.63;;;4.80;;
39674;SDS011;27790;50.840;4.386;2023-06-19T03:01:13;8.02;;;4.90;;
39674;SDS011;27790;50.840;4.386;2023-06-19T03:03:39;9.05;;;4.70;;
39674;SDS011;27790;50.840;4.386;2023-06-19T03:06:06;8.45;;;5.10;;
39674;SDS011;27790;50.840;4.386;2023-06-19T03:08:33;5.25;;;4.63;;
39674;SDS011;27790;50.840;4.386;2023-06-19T03:11:01;5.82;;;5.32;;
39674;SDS011;27790;50.840;4.386;2023-06-19T03:13:32;7.20;;;5.55;;
39674;SDS011;27790;50.840;4.386;2023-06-19T03:16:09;8.75;;;5.78;;
39674;SDS011;27790;50.840;4.386;2023-06-19T03:18:35;10.55;;;6.82;;
39674;SDS011;27790;50.840;4.386;2023-06-19T03:21:00;9.25;;;6.90;;
39674;SDS011;27790;50.840;4.386;2023-06-19T03:23:26;7.63;;;6.93;;
39674;SDS011;27790;50.840;4.386;2023-06-19T03:25:51;9.25;;;7.20;;
39674;SDS011;27790;50.840;4.386;2023-06-19T03:28:17;8.38;;;6.97;;
39674;SDS011;27790;50.840;4.386;2023-06-19T03:30:42;7.28;;;6.55;;
39674;SDS011;27790;50.840;4.386;2023-06-19T03:33:08;9.88;;;7.03;;
39674;SDS011;27790;50.840;4.386;2023-06-19T03:35:34;8.63;;;6.18;;
39674;SDS011;27790;50.840;4.386;2023-06-19T03:37:59;9.52;;;6.85;;
39674;SDS011;27790;50.840;4.386;2023-06-19T03:40:25;7.55;;;6.82;;
39674;SDS011;27790;50.840;4.386;2023-06-19T03:42:51;8.70;;;7.70;;
39674;SDS011;27790;50.840;4.386;2023-06-19T03:45:16;13.02;;;9.10;;
39674;SDS011;27790;50.840;4.386;2023-06-19T03:47:42;17.35;;;10.10;;
39674;SDS011;27790;50.840;4.386;2023-06-19T03:50:07;14.05;;;10.70;;
39674;SDS011;27790;50.840;4.386;2023-06-19T03:52:35;13.25;;;9.38;;
39674;SDS011;27790;50.840;4.386;2023-06-19T03:55:02;12.82;;;9.00;;
39674;SDS011;27790;50.840;4.386;2023-06-19T03:57:28;14.00;;;10.43;;
39674;SDS011;27790;50.840;4.386;2023-06-19T03:59:54;16.92;;;10.77;;
39674;SDS011;27790;50.840;4.386;2023-06-19T04:02:19;13.18;;;8.82;;
39674;SDS011;27790;50.840;4.386;2023-06-19T04:04:45;12.43;;;10.13;;
39674;SDS011;27790;50.840;4.386;2023-06-19T04:07:11;11.25;;;9.20;;
39674;SDS011;27790;50.840;4.386;2023-06-19T04:09:38;12.43;;;9.25;;
39674;SDS011;27790;50.840;4.386;2023-06-19T04:12:04;11.70;;;8.77;;
39674;SDS011;27790;50.840;4.386;2023-06-19T04:14:30;10.75;;;9.13;;
39674;SDS011;27790;50.840;4.386;2023-06-19T04:16:55;11.27;;;8.30;;
39674;SDS011;27790;50.840;4.386;2023-06-19T04:19:21;10.40;;;8.90;;
39674;SDS011;27790;50.840;4.386;2023-06-19T04:21:46;11.07;;;9.40;;
39674;SDS011;27790;50.840;4.386;2023-06-19T04:24:12;10.32;;;8.65;;
39674;SDS011;27790;50.840;4.386;2023-06-19T04:26:38;10.63;;;8.25;;
39674;SDS011;27790;50.840;4.386;2023-06-19T04:29:03;11.05;;;8.35;;
39674;SDS011;27790;50.840;4.386;2023-06-19T04:31:31;9.38;;;8.18;;
39674;SDS011;27790;50.840;4.386;2023-06-19T04:33:57;10.57;;;7.85;;
39674;SDS011;27790;50.840;4.386;2023-06-19T04:36:23;10.82;;;8.30;;
39674;SDS011;27790;50.840;4.386;2023-06-19T04:38:48;14.25;;;8.00;;
39674;SDS011;27790;50.840;4.386;2023-06-19T04:41:17;13.07;;;8.30;;
39674;SDS011;27790;50.840;4.386;2023-06-19T04:43:42;14.20;;;8.35;;
39674;SDS011;27790;50.840;4.386;2023-06-19T04:46:08;11.90;;;8.60;;
39674;SDS011;27790;50.840;4.386;2023-06-19T04:48:34;9.55;;;8.63;;
39674;SDS011;27790;50.840;4.386;2023-06-19T04:51:01;12.18;;;8.65;;
39674;SDS011;27790;50.840;4.386;2023-06-19T04:53:27;10.95;;;8.80;;
39674;SDS011;27790;50.840;4.386;2023-06-19T04:55:53;15.50;;;9.27;;
39674;SDS011;27790;50.840;4.386;2023-06-19T04:58:20;12.88;;;9.10;;
39674;SDS011;27790;50.840;4.386;2023-06-19T05:00:46;17.45;;;10.77;;
39674;SDS011;27790;50.840;4.386;2023-06-19T05:03:19;13.35;;;9.35;;
39674;SDS011;27790;50.840;4.386;2023-06-19T05:05:44;30.35;;;11.30;;
39674;SDS011;27790;50.840;4.386;2023-06-19T05:08:10;14.80;;;8.30;;
39674;SDS011;27790;50.840;4.386;2023-06-19T05:10:37;13.45;;;9.10;;
39674;SDS011;27790;50.840;4.386;2023-06-19T05:13:02;10.93;;;8.30;;
39674;SDS011;27790;50.840;4.386;2023-06-19T05:15:28;12.88;;;8.50;;
39674;SDS011;27790;50.840;4.386;2023-06-19T05:17:53;8.88;;;7.63;;
39674;SDS011;27790;50.840;4.386;2023-06-19T05:20:19;13.30;;;8.75;;
39674;SDS011;27790;50.840;4.386;2023-06-19T05:22:45;11.63;;;8.90;;
39674;SDS011;27790;50.840;4.386;2023-06-19T05:25:11;14.15;;;8.55;;
39674;SDS011;27790;50.840;4.386;2023-06-19T05:27:36;11.00;;;8.52;;
39674;SDS011;27790;50.840;4.386;2023-06-19T05:30:02;10.00;;;8.98;;
39674;SDS011;27790;50.840;4.386;2023-06-19T05:32:29;11.20;;;8.85;;
39674;SDS011;27790;50.840;4.386;2023-06-19T05:34:55;12.38;;;9.82;;
39674;SDS011;27790;50.840;4.386;2023-06-19T05:37:21;12.88;;;10.95;;
39674;SDS011;27790;50.840;4.386;2023-06-19T05:39:47;14.30;;;11.05;;
39674;SDS011;27790;50.840;4.386;2023-06-19T05:42:13;16.08;;;10.88;;
39674;SDS011;27790;50.840;4.386;2023-06-19T05:44:39;19.52;;;10.18;;
39674;SDS011;27790;50.840;4.386;2023-06-19T05:47:05;12.82;;;10.50;;
39674;SDS011;27790;50.840;4.386;2023-06-19T05:49:31;15.32;;;9.85;;
39674;SDS011;27790;50.840;4.386;2023-06-19T05:51:57;13.52;;;9.50;;
39674;SDS011;27790;50.840;4.386;2023-06-19T05:54:26;13.48;;;9.63;;
39674;SDS011;27790;50.840;4.386;2023-06-19T05:56:52;12.75;;;10.60;;
39674;SDS011;27790;50.840;4.386;2023-06-19T05:59:18;13.70;;;11.30;;
39674;SDS011;27790;50.840;4.386;2023-06-19T06:01:43;12.32;;;10.00;;
39674;SDS011;27790;50.840;4.386;2023-06-19T06:04:09;19.67;;;12.13;;
39674;SDS011;27790;50.840;4.386;2023-06-19T06:06:36;22.42;;;13.68;;
39674;SDS011;27790;50.840;4.386;2023-06-19T06:09:02;17.83;;;11.95;;
39674;SDS011;27790;50.840;4.386;2023-06-19T06:11:27;13.55;;;11.77;;
39674;SDS011;27790;50.840;4.386;2023-06-19T06:13:53;15.35;;;12.00;;
39674;SDS011;27790;50.840;4.386;2023-06-19T06:16:18;21.95;;;12.60;;
39674;SDS011;27790;50.840;4.386;2023-06-19T06:18:44;25.15;;;13.60;;
39674;SDS011;27790;50.840;4.386;2023-06-19T06:21:10;16.95;;;13.05;;
39674;SDS011;27790;50.840;4.386;2023-06-19T06:23:37;15.07;;;13.07;;
39674;SDS011;27790;50.840;4.386;2023-06-19T06:26:05;21.50;;;13.18;;
39674;SDS011;27790;50.840;4.386;2023-06-19T06:28:30;17.70;;;13.73;;
39674;SDS011;27790;50.840;4.386;2023-06-19T06:30:56;18.67;;;12.90;;
39674;SDS011;27790;50.840;4.386;2023-06-19T06:33:22;19.52;;;13.48;;
39674;SDS011;27790;50.840;4.386;2023-06-19T06:35:48;18.55;;;13.00;;
39674;SDS011;27790;50.840;4.386;2023-06-19T06:38:14;20.27;;;14.68;;
39674;SDS011;27790;50.840;4.386;2023-06-19T06:40:40;16.40;;;13.40;;
39674;SDS011;27790;50.840;4.386;2023-06-19T06:43:06;19.52;;;13.82;;
39674;SDS011;27790;50.840;4.386;2023-06-19T06:45:32;54.17;;;16.63;;
39674;SDS011;27790;50.840;4.386;2023-06-19T06:47:57;18.98;;;13.10;;
39674;SDS011;27790;50.840;4.386;2023-06-19T06:50:23;14.82;;;12.68;;
39674;SDS011;27790;50.840;4.386;2023-06-19T06:52:49;15.90;;;11.38;;
39674;SDS011;27790;50.840;4.386;2023-06-19T06:55:14;16.98;;;11.35;;
39674;SDS011;27790;50.840;4.386;2023-06-19T06:57:40;13.68;;;11.27;;
39674;SDS011;27790;50.840;4.386;2023-06-19T07:00:06;12.63;;;11.05;;
39674;SDS011;27790;50.840;4.386;2023-06-19T07:02:34;14.43;;;10.43;;
39674;SDS011;27790;50.840;4.386;2023-06-19T07:05:06;15.45;;;11.80;;
39674;SDS011;27790;50.840;4.386;2023-06-19T07:07:32;13.95;;;11.45;;
39674;SDS011;27790;50.840;4.386;2023-06-19T07:09:58;14.50;;;11.35;;
39674;SDS011;27790;50.840;4.386;2023-06-19T07:12:23;15.32;;;11.55;;
39674;SDS011;27790;50.840;4.386;2023-06-19T07:14:49;16.55;;;12.55;;
39674;SDS011;27790;50.840;4.386;2023-06-19T07:17:18;13.63;;;10.95;;
39674;SDS011;27790;50.840;4.386;2023-06-19T07:19:43;13.88;;;11.07;;
39674;SDS011;27790;50.840;4.386;2023-06-19T07:22:09;14.73;;;10.18;;
39674;SDS011;27790;50.840;4.386;2023-06-19T07:24:34;13.32;;;10.15;;
39674;SDS011;27790;50.840;4.386;2023-06-19T07:27:00;10.65;;;9.55;;
39674;SDS011;27790;50.840;4.386;2023-06-19T07:29:25;13.93;;;9.38;;
39674;SDS011;27790;50.840;4.386;2023-06-19T07:31:51;11.77;;;9.50;;
39674;SDS011;27790;50.840;4.386;2023-06-19T07:34:17;15.48;;;10.00;;
39674;SDS011;27790;50.840;4.386;2023-06-19T07:36:43;15.52;;;9.68;;
39674;SDS011;27790;50.840;4.386;2023-06-19T07:39:09;11.73;;;9.55;;
39674;SDS011;27790;50.840;4.386;2023-06-19T07:41:35;18.13;;;10.40;;
39674;SDS011;27790;50.840;4.386;2023-06-19T07:44:01;21.92;;;10.10;;
39674;SDS011;27790;50.840;4.386;2023-06-19T07:46:26;37.97;;;11.02;;
39674;SDS011;27790;50.840;4.386;2023-06-19T07:48:52;12.90;;;9.25;;
39674;SDS011;27790;50.840;4.386;2023-06-19T07:51:20;16.52;;;9.07;;
39674;SDS011;27790;50.840;4.386;2023-06-19T07:53:45;10.52;;;9.38;;
39674;SDS011;27790;50.840;4.386;2023-06-19T07:56:11;18.10;;;9.73;;
39674;SDS011;27790;50.840;4.386;2023-06-19T07:58:37;17.38;;;9.35;;
39674;SDS011;27790;50.840;4.386;2023-06-19T08:01:02;20.17;;;9.50;;
39674;SDS011;27790;50.840;4.386;2023-06-19T08:03:28;15.50;;;9.63;;
39674;SDS011;27790;50.840;4.386;2023-06-19T08:05:53;25.92;;;10.45;;
39674;SDS011;27790;50.840;4.386;2023-06-19T08:08:19;10.50;;;8.38;;
39674;SDS011;27790;50.840;4.386;2023-06-19T08:10:45;16.48;;;8.75;;
39674;SDS011;27790;50.840;4.386;2023-06-19T08:13:11;13.55;;;8.52;;
39674;SDS011;27790;50.840;4.386;2023-06-19T08:15:37;10.48;;;7.97;;
39674;SDS011;27790;50.840;4.386;2023-06-19T08:18:03;12.63;;;8.50;;
39674;SDS011;27790;50.840;4.386;2023-06-19T08:20:28;14.52;;;8.48;;
39674;SDS011;27790;50.840;4.386;2023-06-19T08:22:54;11.65;;;8.13;;
39674;SDS011;27790;50.840;4.386;2023-06-19T08:25:21;26.27;;;8.63;;
39674;SDS011;27790;50.840;4.386;2023-06-19T08:27:46;21.70;;;9.57;;
39674;SDS011;27790;50.840;4.386;2023-06-19T08:30:12;10.15;;;8.30;;
39674;SDS011;27790;50.840;4.386;2023-06-19T08:32:38;12.93;;;9.23;;
39674;SDS011;27790;50.840;4.386;2023-06-19T08:35:03;14.98;;;8.05;;
39674;SDS011;27790;50.840;4.386;2023-06-19T08:37:29;14.73;;;8.73;;
39674;SDS011;27790;50.840;4.386;2023-06-19T08:39:55;15.68;;;8.75;;
39674;SDS011;27790;50.840;4.386;2023-06-19T08:42:21;13.60;;;7.55;;
39674;SDS011;27790;50.840;4.386;2023-06-19T08:44:48;17.67;;;9.00;;
39674;SDS011;27790;50.840;4.386;2023-06-19T08:47:14;12.02;;;7.43;;
39674;SDS011;27790;50.840;4.386;2023-06-19T08:49:39;9.38;;;7.00;;
39674;SDS011;27790;50.840;4.386;2023-06-19T08:52:05;13.57;;;8.50;;
39674;SDS011;27790;50.840;4.386;2023-06-19T08:54:31;12.68;;;7.72;;
39674;SDS011;27790;50.840;4.386;2023-06-19T08:57:00;12.18;;;7.50;;
39674;SDS011;27790;50.840;4.386;2023-06-19T08:59:27;12.18;;;7.28;;
39674;SDS011;27790;50.840;4.386;2023-06-19T09:01:54;13.20;;;7.65;;
39674;SDS011;27790;50.840;4.386;2023-06-19T09:04:21;17.15;;;8.20;;
39674;SDS011;27790;50.840;4.386;2023-06-19T09:06:49;15.98;;;8.20;;
39674;SDS011;27790;50.840;4.386;2023-06-19T09:09:17;20.55;;;8.77;;
39674;SDS011;27790;50.840;4.386;2023-06-19T09:17:04;8.80;;;6.75;;
39674;SDS011;27790;50.840;4.386;2023-06-19T09:19:32;10.10;;;8.02;;
39674;SDS011;27790;50.840;4.386;2023-06-19T09:22:08;12.55;;;8.10;;
39674;SDS011;27790;50.840;4.386;2023-06-19T09:24:35;13.57;;;8.38;;
39674;SDS011;27790;50.840;4.386;2023-06-19T09:27:08;13.75;;;8.40;;
39674;SDS011;27790;50.840;4.386;2023-06-19T09:29:38;13.63;;;7.30;;
39674;SDS011;27790;50.840;4.386;2023-06-19T09:32:24;9.65;;;7.80;;
39674;SDS011;27790;50.840;4.386;2023-06-19T09:34:52;13.05;;;7.60;;
39674;SDS011;27790;50.840;4.386;2023-06-19T09:37:21;9.10;;;7.35;;
39674;SDS011;27790;50.840;4.386;2023-06-19T09:39:55;11.20;;;7.18;;
39674;SDS011;27790;50.840;4.386;2023-06-19T09:42:27;12.07;;;7.28;;
39674;SDS011;27790;50.840;4.386;2023-06-19T09:45:01;10.52;;;7.43;;
39674;SDS011;27790;50.840;4.386;2023-06-19T09:47:38;9.57;;;7.35;;
39674;SDS011;27790;50.840;4.386;2023-06-19T09:50:07;12.43;;;8.10;;
39674;SDS011;27790;50.840;4.386;2023-06-19T09:52:33;12.20;;;7.60;;
39674;SDS011;27790;50.840;4.386;2023-06-19T09:55:01;10.07;;;7.40;;
39674;SDS011;27790;50.840;4.386;2023-06-19T09:57:31;11.65;;;7.63;;
39674;SDS011;27790;50.840;4.386;2023-06-19T09:59:58;15.95;;;8.15;;
39674;SDS011;27790;50.840;4.386;2023-06-19T10:02:34;16.13;;;7.72;;
39674;SDS011;27790;50.840;4.386;2023-06-19T10:05:00;14.82;;;7.60;;
39674;SDS011;27790;50.840;4.386;2023-06-19T10:07:32;11.38;;;7.85;;
39674;SDS011;27790;50.840;4.386;2023-06-19T10:23:04;10.05;;;7.80;;
39674;SDS011;27790;50.840;4.386;2023-06-19T10:25:31;11.32;;;8.00;;
39674;SDS011;27790;50.840;4.386;2023-06-19T10:27:58;8.52;;;7.45;;
39674;SDS011;27790;50.840;4.386;2023-06-19T10:30:25;16.55;;;8.15;;
39674;SDS011;27790;50.840;4.386;2023-06-19T10:32:51;16.50;;;7.63;;
39674;SDS011;27790;50.840;4.386;2023-06-19T10:35:18;14.88;;;7.60;;
39674;SDS011;27790;50.840;4.386;2023-06-19T10:37:49;59.92;;;11.65;;
39674;SDS011;27790;50.840;4.386;2023-06-19T10:40:15;15.50;;;7.25;;
39674;SDS011;27790;50.840;4.386;2023-06-19T10:42:41;17.63;;;7.03;;
39674;SDS011;27790;50.840;4.386;2023-06-19T10:45:10;11.57;;;8.02;;
39674;SDS011;27790;50.840;4.386;2023-06-19T10:47:38;9.90;;;6.80;;
39674;SDS011;27790;50.840;4.386;2023-06-19T10:50:04;11.75;;;7.22;;
39674;SDS011;27790;50.840;4.386;2023-06-19T10:52:39;11.88;;;7.40;;
39674;SDS011;27790;50.840;4.386;2023-06-19T10:55:06;13.27;;;7.28;;
39674;SDS011;27790;50.840;4.386;2023-06-19T10:57:33;16.40;;;6.97;;
39674;SDS011;27790;50.840;4.386;2023-06-19T10:59:58;13.32;;;7.35;;
39674;SDS011;27790;50.840;4.386;2023-06-19T11:02:24;18.20;;;7.47;;
39674;SDS011;27790;50.840;4.386;2023-06-19T11:04:53;13.98;;;6.95;;
39674;SDS011;27790;50.840;4.386;2023-06-19T11:07:20;15.77;;;6.78;;
39674;SDS011;27790;50.840;4.386;2023-06-19T11:09:47;15.43;;;6.60;;
39674;SDS011;27790;50.840;4.386;2023-06-19T11:12:18;11.45;;;7.30;;
39674;SDS011;27790;50.840;4.386;2023-06-19T11:14:50;14.07;;;7.35;;
39674;SDS011;27790;50.840;4.386;2023-06-19T11:17:16;15.23;;;7.25;;
39674;SDS011;27790;50.840;4.386;2023-06-19T11:19:46;38.25;;;9.13;;
39674;SDS011;27790;50.840;4.386;2023-06-19T11:22:12;20.40;;;8.05;;
39674;SDS011;27790;50.840;4.386;2023-06-19T11:24:44;20.83;;;9.90;;
39674;SDS011;27790;50.840;4.386;2023-06-19T11:27:18;20.77;;;9.68;;
39674;SDS011;27790;50.840;4.386;2023-06-19T11:29:54;27.40;;;9.98;;
39674;SDS011;27790;50.840;4.386;2023-06-19T11:32:21;17.00;;;9.07;;
39674;SDS011;27790;50.840;4.386;2023-06-19T11:34:56;14.60;;;7.93;;
39674;SDS011;27790;50.840;4.386;2023-06-19T11:37:22;30.85;;;9.73;;
39674;SDS011;27790;50.840;4.386;2023-06-19T11:39:49;20.17;;;8.45;;
39674;SDS011;27790;50.840;4.386;2023-06-19T11:42:16;13.18;;;7.25;;
39674;SDS011;27790;50.840;4.386;2023-06-19T11:47:22;13.07;;;6.72;;
39674;SDS011;27790;50.840;4.386;2023-06-19T11:49:48;12.82;;;8.13;;
39674;SDS011;27790;50.840;4.386;2023-06-19T11:52:15;20.27;;;7.15;;
39674;SDS011;27790;50.840;4.386;2023-06-19T11:54:41;10.02;;;5.97;;
39674;SDS011;27790;50.840;4.386;2023-06-19T11:57:08;8.45;;;5.93;;
39674;SDS011;27790;50.840;4.386;2023-06-19T11:59:37;11.90;;;6.28;;
39674;SDS011;27790;50.840;4.386;2023-06-19T12:02:06;7.50;;;5.75;;
39674;SDS011;27790;50.840;4.386;2023-06-19T12:04:33;9.27;;;5.53;;
39674;SDS011;27790;50.840;4.386;2023-06-19T12:06:59;9.25;;;5.80;;
39674;SDS011;27790;50.840;4.386;2023-06-19T12:09:25;10.35;;;6.00;;
39674;SDS011;27790;50.840;4.386;2023-06-19T12:11:51;11.90;;;6.60;;
39674;SDS011;27790;50.840;4.386;2023-06-19T12:14:17;65.88;;;11.55;;
39674;SDS011;27790;50.840;4.386;2023-06-19T12:16:45;49.38;;;8.52;;
39674;SDS011;27790;50.840;4.386;2023-06-19T12:19:11;47.47;;;8.25;;
39674;SDS011;27790;50.840;4.386;2023-06-19T12:21:36;19.00;;;6.55;;
39674;SDS011;27790;50.840;4.386;2023-06-19T12:24:02;8.80;;;5.53;;
39674;SDS011;27790;50.840;4.386;2023-06-19T12:26:28;123.60;;;15.25;;
39674;SDS011;27790;50.840;4.386;2023-06-19T12:28:53;24.83;;;7.15;;
39674;SDS011;27790;50.840;4.386;2023-06-19T12:31:19;9.50;;;5.68;;
39674;SDS011;27790;50.840;4.386;2023-06-19T12:33:45;10.82;;;5.55;;
39674;SDS011;27790;50.840;4.386;2023-06-19T12:36:13;7.47;;;5.72;;
39674;SDS011;27790;50.840;4.386;2023-06-19T12:38:41;12.45;;;6.30;;
39674;SDS011;27790;50.840;4.386;2023-06-19T12:41:07;11.73;;;5.95;;
39674;SDS011;27790;50.840;4.386;2023-06-19T12:43:33;10.25;;;6.03;;
39674;SDS011;27790;50.840;4.386;2023-06-19T12:45:58;13.18;;;5.57;;
39674;SDS011;27790;50.840;4.386;2023-06-19T12:48:25;13.85;;;5.03;;
39674;SDS011;27790;50.840;4.386;2023-06-19T12:50:51;10.40;;;4.90;;
39674;SDS011;27790;50.840;4.386;2023-06-19T12:53:17;6.45;;;5.03;;
39674;SDS011;27790;50.840;4.386;2023-06-19T12:55:43;7.25;;;4.65;;
39674;SDS011;27790;50.840;4.386;2023-06-19T12:58:09;7.75;;;5.50;;
39674;SDS011;27790;50.840;4.386;2023-06-19T13:00:36;9.18;;;5.40;;
39674;SDS011;27790;50.840;4.386;2023-06-19T13:03:02;11.30;;;6.07;;
39674;SDS011;27790;50.840;4.386;2023-06-19T13:05:27;5.85;;;4.80;;
39674;SDS011;27790;50.840;4.386;2023-06-19T13:07:53;10.82;;;5.38;;
39674;SDS011;27790;50.840;4.386;2023-06-19T13:10:19;9.18;;;5.07;;
39674;SDS011;27790;50.840;4.386;2023-06-19T13:12:44;11.43;;;5.55;;
39674;SDS011;27790;50.840;4.386;2023-06-19T13:15:10;12.35;;;5.28;;
39674;SDS011;27790;50.840;4.386;2023-06-19T13:17:36;9.82;;;5.28;;
39674;SDS011;27790;50.840;4.386;2023-06-19T13:20:02;9.27;;;5.55;;
39674;SDS011;27790;50.840;4.386;2023-06-19T13:22:29;9.30;;;5.25;;
39674;SDS011;27790;50.840;4.386;2023-06-19T13:24:55;6.35;;;4.82;;
39674;SDS011;27790;50.840;4.386;2023-06-19T13:27:21;8.02;;;5.05;;
39674;SDS011;27790;50.840;4.386;2023-06-19T13:29:46;8.13;;;4.95;;
39674;SDS011;27790;50.840;4.386;2023-06-19T13:32:12;7.45;;;4.78;;
39674;SDS011;27790;50.840;4.386;2023-06-19T13:34:38;5.97;;;4.50;;
39674;SDS011;27790;50.840;4.386;2023-06-19T13:37:03;10.68;;;5.03;;
39674;SDS011;27790;50.840;4.386;2023-06-19T13:39:29;10.43;;;4.90;;
39674;SDS011;27790;50.840;4.386;2023-06-19T13:41:55;9.23;;;5.43;;
39674;SDS011;27790;50.840;4.386;2023-06-19T13:44:21;11.13;;;5.07;;
39674;SDS011;27790;50.840;4.386;2023-06-19T13:46:47;6.47;;;4.72;;
39674;SDS011;27790;50.840;4.386;2023-06-19T13:49:12;8.98;;;4.35;;
39674;SDS011;27790;50.840;4.386;2023-06-19T13:51:38;14.85;;;4.55;;
39674;SDS011;27790;50.840;4.386;2023-06-19T13:54:04;5.63;;;4.75;;
39674;SDS011;27790;50.840;4.386;2023-06-19T13:56:30;10.95;;;4.50;;
39674;SDS011;27790;50.840;4.386;2023-06-19T13:58:57;7.28;;;4.90;;
39674;SDS011;27790;50.840;4.386;2023-06-19T14:01:23;7.45;;;4.18;;
39674;SDS011;27790;50.840;4.386;2023-06-19T14:03:50;7.75;;;4.28;;
39674;SDS011;27790;50.840;4.386;2023-06-19T14:06:16;7.85;;;4.47;;
39674;SDS011;27790;50.840;4.386;2023-06-19T14:08:42;6.97;;;4.50;;
39674;SDS011;27790;50.840;4.386;2023-06-19T14:11:08;6.82;;;4.72;;
39674;SDS011;27790;50.840;4.386;2023-06-19T14:13:33;7.95;;;4.43;;
39674;SDS011;27790;50.840;4.386;2023-06-19T14:15:59;9.00;;;4.68;;
39674;SDS011;27790;50.840;4.386;2023-06-19T14:18:25;9.50;;;5.72;;
39674;SDS011;27790;50.840;4.386;2023-06-19T14:20:50;6.40;;;4.15;;
39674;SDS011;27790;50.840;4.386;2023-06-19T14:23:16;6.55;;;3.92;;
39674;SDS011;27790;50.840;4.386;2023-06-19T14:25:41;8.93;;;4.53;;
39674;SDS011;27790;50.840;4.386;2023-06-19T14:28:07;4.25;;;3.78;;
39674;SDS011;27790;50.840;4.386;2023-06-19T14:30:33;6.50;;;4.00;;
39674;SDS011;27790;50.840;4.386;2023-06-19T14:32:58;5.72;;;3.92;;
39674;SDS011;27790;50.840;4.386;2023-06-19T14:35:24;5.72;;;5.13;;
39674;SDS011;27790;50.840;4.386;2023-06-19T14:37:49;4.88;;;4.25;;
39674;SDS011;27790;50.840;4.386;2023-06-19T14:40:15;15.38;;;5.05;;
39674;SDS011;27790;50.840;4.386;2023-06-19T14:42:41;5.50;;;3.63;;
39674;SDS011;27790;50.840;4.386;2023-06-19T14:45:06;3.88;;;3.30;;
39674;SDS011;27790;50.840;4.386;2023-06-19T14:47:32;4.45;;;4.05;;
39674;SDS011;27790;50.840;4.386;2023-06-19T14:49:58;7.63;;;3.67;;
39674;SDS011;27790;50.840;4.386;2023-06-19T14:52:24;5.10;;;3.35;;
39674;SDS011;27790;50.840;4.386;2023-06-19T14:54:49;8.05;;;4.22;;
39674;SDS011;27790;50.840;4.386;2023-06-19T14:57:15;5.57;;;4.45;;
39674;SDS011;27790;50.840;4.386;2023-06-19T14:59:41;3.95;;;3.55;;
39674;SDS011;27790;50.840;4.386;2023-06-19T15:02:06;6.07;;;3.92;;